sensor_id;sensor_type;location;lat;lon;timestamp;pressure;altitude;pressure_sealevel;temperature;humidity
34124;BME280;13153;52.316;21.166;2023-07-29T00:00:58;99624.44;;;22.00;65.91
34124;BME280;13153;52.316;21.166;2023-07-29T00:03:25;99624.41;;;22.02;66.08
34124;BME280;13153;52.316;21.166;2023-07-29T00:05:51;99631.56;;;22.01;66.08
34124;BME280;13153;52.316;21.166;2023-07-29T00:08:17;99633.44;;;21.98;65.76
34124;BME280;13153;52.316;21.166;2023-07-29T00:10:43;99645.03;;;21.98;65.87
34124;BME280;13153;52.316;21.166;2023-07-29T00:13:09;99631.63;;;21.98;65.87
34124;BME280;13153;52.316;21.166;2023-07-29T00:15:35;99641.44;;;21.99;66.02
34124;BME280;13153;52.316;21.166;2023-07-29T00:18:00;99640.56;;;21.99;66.10
34124;BME280;13153;52.316;21.166;2023-07-29T00:20:26;99635.28;;;21.96;66.01
34124;BME280;13153;52.316;21.166;2023-07-29T00:22:52;99631.81;;;21.94;65.92
34124;BME280;13153;52.316;21.166;2023-07-29T00:25:21;99633.72;;;21.90;65.82
34124;BME280;13153;52.316;21.166;2023-07-29T00:27:47;99632.94;;;21.87;65.76
34124;BME280;13153;52.316;21.166;2023-07-29T00:30:13;99647.34;;;21.83;65.60
34124;BME280;13153;52.316;21.166;2023-07-29T00:32:39;99652.78;;;21.80;65.78
34124;BME280;13153;52.316;21.166;2023-07-29T00:35:05;99650.22;;;21.77;65.75
34124;BME280;13153;52.316;21.166;2023-07-29T00:37:31;99653.81;;;21.75;65.77
34124;BME280;13153;52.316;21.166;2023-07-29T00:39:57;99652.09;;;21.73;65.77
34124;BME280;13153;52.316;21.166;2023-07-29T00:42:24;99649.56;;;21.68;65.85
34124;BME280;13153;52.316;21.166;2023-07-29T00:44:50;99652.28;;;21.67;65.84
34124;BME280;13153;52.316;21.166;2023-07-29T00:47:16;99646.94;;;21.67;65.81
34124;BME280;13153;52.316;21.166;2023-07-29T00:49:45;99646.09;;;21.65;65.78
34124;BME280;13153;52.316;21.166;2023-07-29T00:52:12;99650.59;;;21.64;65.74
34124;BME280;13153;52.316;21.166;2023-07-29T00:54:41;99653.41;;;21.60;65.75
34124;BME280;13153;52.316;21.166;2023-07-29T00:57:09;99654.41;;;21.56;65.70
34124;BME280;13153;52.316;21.166;2023-07-29T00:59:37;99654.47;;;21.54;65.64
34124;BME280;13153;52.316;21.166;2023-07-29T01:02:04;99651.88;;;21.51;65.74
34124;BME280;13153;52.316;21.166;2023-07-29T01:04:30;99649.25;;;21.50;65.73
34124;BME280;13153;52.316;21.166;2023-07-29T01:10:19;99656.47;;;21.46;65.85
34124;BME280;13153;52.316;21.166;2023-07-29T01:12:55;99660.13;;;21.43;65.73
34124;BME280;13153;52.316;21.166;2023-07-29T01:15:43;99656.66;;;21.40;65.65
34124;BME280;13153;52.316;21.166;2023-07-29T01:18:22;99670.09;;;21.38;65.52
34124;BME280;13153;52.316;21.166;2023-07-29T01:20:53;99670.25;;;21.34;65.68
34124;BME280;13153;52.316;21.166;2023-07-29T01:23:30;99669.47;;;21.30;65.68
34124;BME280;13153;52.316;21.166;2023-07-29T01:25:56;99668.59;;;21.30;65.47
34124;BME280;13153;52.316;21.166;2023-07-29T01:28:22;99673.97;;;21.28;65.49
34124;BME280;13153;52.316;21.166;2023-07-29T01:30:53;99673.19;;;21.25;65.40
34124;BME280;13153;52.316;21.166;2023-07-29T01:33:31;99675.03;;;21.23;65.31
34124;BME280;13153;52.316;21.166;2023-07-29T01:36:08;99674.16;;;21.21;65.58
34124;BME280;13153;52.316;21.166;2023-07-29T01:38:38;99673.31;;;21.19;65.58
34124;BME280;13153;52.316;21.166;2023-07-29T01:41:08;99662.59;;;21.20;65.68
34124;BME280;13153;52.316;21.166;2023-07-29T01:43:36;99672.41;;;21.20;65.44
34124;BME280;13153;52.316;21.166;2023-07-29T01:46:09;99672.41;;;21.20;65.49
34124;BME280;13153;52.316;21.166;2023-07-29T01:48:36;99673.28;;;21.20;65.49
34124;BME280;13153;52.316;21.166;2023-07-29T01:51:02;99681.31;;;21.20;65.65
34124;BME280;13153;52.316;21.166;2023-07-29T01:53:28;99676.88;;;21.19;65.68
34124;BME280;13153;52.316;21.166;2023-07-29T01:55:54;99676.03;;;21.17;65.64
34124;BME280;13153;52.316;21.166;2023-07-29T01:58:19;99673.38;;;21.17;65.37
34124;BME280;13153;52.316;21.166;2023-07-29T02:00:45;99685.00;;;21.16;65.63
34124;BME280;13153;52.316;21.166;2023-07-29T02:03:11;99681.41;;;21.17;65.55
34124;BME280;13153;52.316;21.166;2023-07-29T02:05:36;99690.31;;;21.18;65.56
34124;BME280;13153;52.316;21.166;2023-07-29T02:08:02;99692.94;;;21.19;65.50
34124;BME280;13153;52.316;21.166;2023-07-29T02:10:28;99696.53;;;21.18;65.51
34124;BME280;13153;52.316;21.166;2023-07-29T02:12:54;99699.25;;;21.17;65.55
34124;BME280;13153;52.316;21.166;2023-07-29T02:15:20;99702.84;;;21.16;65.47
34124;BME280;13153;52.316;21.166;2023-07-29T02:17:45;99699.34;;;21.14;65.82
34124;BME280;13153;52.316;21.166;2023-07-29T02:20:11;99698.44;;;21.13;65.67
34124;BME280;13153;52.316;21.166;2023-07-29T02:22:37;99701.97;;;21.15;65.79
34124;BME280;13153;52.316;21.166;2023-07-29T02:25:03;99698.28;;;21.19;65.85
34124;BME280;13153;52.316;21.166;2023-07-29T02:27:29;99703.59;;;21.22;65.92
34124;BME280;13153;52.316;21.166;2023-07-29T02:29:55;99706.22;;;21.24;65.97
34124;BME280;13153;52.316;21.166;2023-07-29T02:32:21;99708.94;;;21.22;65.85
34124;BME280;13153;52.316;21.166;2023-07-29T02:34:46;99709.00;;;21.19;65.80
34124;BME280;13153;52.316;21.166;2023-07-29T02:37:12;99712.53;;;21.20;65.87
34124;BME280;13153;52.316;21.166;2023-07-29T02:39:38;99709.94;;;21.17;66.01
34124;BME280;13153;52.316;21.166;2023-07-29T02:42:04;99714.38;;;21.18;65.89
34124;BME280;13153;52.316;21.166;2023-07-29T02:44:30;99714.38;;;21.18;65.74
34124;BME280;13153;52.316;21.166;2023-07-29T02:46:55;99712.59;;;21.18;65.93
34124;BME280;13153;52.316;21.166;2023-07-29T02:49:22;99711.66;;;21.19;65.82
34124;BME280;13153;52.316;21.166;2023-07-29T02:51:49;99709.94;;;21.17;66.16
34124;BME280;13153;52.316;21.166;2023-07-29T02:54:14;99717.13;;;21.15;65.91
34124;BME280;13153;52.316;21.166;2023-07-29T02:56:40;99727.84;;;21.15;66.17
34124;BME280;13153;52.316;21.166;2023-07-29T02:59:06;99720.72;;;21.14;65.95
34124;BME280;13153;52.316;21.166;2023-07-29T03:01:32;99724.31;;;21.13;65.93
34124;BME280;13153;52.316;21.166;2023-07-29T03:03:57;99732.31;;;21.14;65.82
34124;BME280;13153;52.316;21.166;2023-07-29T03:06:24;99728.72;;;21.15;65.75
34124;BME280;13153;52.316;21.166;2023-07-29T03:08:50;99726.84;;;21.19;65.50
34124;BME280;13153;52.316;21.166;2023-07-29T03:11:16;99732.16;;;21.20;65.45
34124;BME280;13153;52.316;21.166;2023-07-29T03:13:42;99724.94;;;21.24;65.37
34124;BME280;13153;52.316;21.166;2023-07-29T03:16:14;99727.59;;;21.25;65.08
34124;BME280;13153;52.316;21.166;2023-07-29T03:18:42;99726.66;;;21.26;64.99
34124;BME280;13153;52.316;21.166;2023-07-29T03:21:09;99740.88;;;21.28;64.88
34124;BME280;13153;52.316;21.166;2023-07-29T03:23:35;99737.25;;;21.31;64.52
34124;BME280;13153;52.316;21.166;2023-07-29T03:26:03;99738.06;;;21.33;64.60
34124;BME280;13153;52.316;21.166;2023-07-29T03:28:39;99734.41;;;21.37;64.35
34124;BME280;13153;52.316;21.166;2023-07-29T03:31:05;99729.81;;;21.40;64.13
34124;BME280;13153;52.316;21.166;2023-07-29T03:33:30;99736.69;;;21.49;63.99
34124;BME280;13153;52.316;21.166;2023-07-29T03:35:56;99737.28;;;21.60;63.56
34124;BME280;13153;52.316;21.166;2023-07-29T03:38:22;99748.50;;;21.73;63.13
34124;BME280;13153;52.316;21.166;2023-07-29T03:40:48;99746.53;;;21.80;62.60
34124;BME280;13153;52.316;21.166;2023-07-29T03:43:14;99746.34;;;21.86;62.34
34124;BME280;13153;52.316;21.166;2023-07-29T03:45:40;99753.56;;;21.84;62.10
34124;BME280;13153;52.316;21.166;2023-07-29T03:48:07;99754.38;;;21.86;62.22
34124;BME280;13153;52.316;21.166;2023-07-29T03:50:35;99751.72;;;21.86;62.26
34124;BME280;13153;52.316;21.166;2023-07-29T03:53:02;99758.78;;;21.88;62.23
34124;BME280;13153;52.316;21.166;2023-07-29T03:55:28;99763.09;;;21.94;62.19
34124;BME280;13153;52.316;21.166;2023-07-29T03:57:59;99771.81;;;21.99;62.08
34124;BME280;13153;52.316;21.166;2023-07-29T04:00:26;99767.34;;;21.99;62.31
34124;BME280;13153;52.316;21.166;2023-07-29T04:02:52;99775.28;;;22.04;62.28
34124;BME280;13153;52.316;21.166;2023-07-29T04:05:18;99774.03;;;22.16;62.09
34124;BME280;13153;52.316;21.166;2023-07-29T04:07:44;99775.66;;;22.21;61.85
34124;BME280;13153;52.316;21.166;2023-07-29T04:10:10;99773.84;;;22.22;61.68
34124;BME280;13153;52.316;21.166;2023-07-29T04:12:37;99775.78;;;22.17;61.75
34124;BME280;13153;52.316;21.166;2023-07-29T04:15:04;99782.91;;;22.18;61.94
34124;BME280;13153;52.316;21.166;2023-07-29T04:17:29;99782.91;;;22.18;61.88
34124;BME280;13153;52.316;21.166;2023-07-29T04:19:55;99790.06;;;22.17;61.92
34124;BME280;13153;52.316;21.166;2023-07-29T04:22:21;99788.16;;;22.21;62.11
34124;BME280;13153;52.316;21.166;2023-07-29T04:24:47;99794.22;;;22.27;61.98
34124;BME280;13153;52.316;21.166;2023-07-29T04:27:13;99792.13;;;22.37;62.01
34124;BME280;13153;52.316;21.166;2023-07-29T04:29:38;99789.06;;;22.49;61.81
34124;BME280;13153;52.316;21.166;2023-07-29T04:32:05;99793.16;;;22.61;61.45
34124;BME280;13153;52.316;21.166;2023-07-29T04:34:31;99795.69;;;22.65;61.37
34124;BME280;13153;52.316;21.166;2023-07-29T04:36:57;99803.88;;;22.61;61.26
34124;BME280;13153;52.316;21.166;2023-07-29T04:39:23;99804.75;;;22.61;61.09
34124;BME280;13153;52.316;21.166;2023-07-29T04:41:49;99802.91;;;22.63;60.95
34124;BME280;13153;52.316;21.166;2023-07-29T04:44:15;99811.09;;;22.59;61.02
34124;BME280;13153;52.316;21.166;2023-07-29T04:46:40;99813.22;;;22.49;61.20
34124;BME280;13153;52.316;21.166;2023-07-29T04:49:06;99814.22;;;22.45;61.57
34124;BME280;13153;52.316;21.166;2023-07-29T04:51:32;99817.88;;;22.43;61.84
34124;BME280;13153;52.316;21.166;2023-07-29T04:53:58;99816.97;;;22.44;61.86
34124;BME280;13153;52.316;21.166;2023-07-29T04:56:25;99818.84;;;22.40;61.49
34124;BME280;13153;52.316;21.166;2023-07-29T04:58:51;99821.72;;;22.34;61.42
34124;BME280;13153;52.316;21.166;2023-07-29T05:01:17;99815.75;;;22.24;61.50
34124;BME280;13153;52.316;21.166;2023-07-29T05:03:43;99821.38;;;22.15;61.80
34124;BME280;13153;52.316;21.166;2023-07-29T05:06:09;99821.53;;;22.11;62.20
34124;BME280;13153;52.316;21.166;2023-07-29T05:08:36;99826.00;;;22.10;62.16
34124;BME280;13153;52.316;21.166;2023-07-29T05:11:02;99834.03;;;22.10;62.64
34124;BME280;13153;52.316;21.166;2023-07-29T05:13:27;99839.22;;;22.16;62.57
34124;BME280;13153;52.316;21.166;2023-07-29T05:15:53;99833.69;;;22.22;62.17
34124;BME280;13153;52.316;21.166;2023-07-29T05:18:20;99834.53;;;22.24;62.15
34124;BME280;13153;52.316;21.166;2023-07-29T05:20:47;99838.97;;;22.25;61.68
34124;BME280;13153;52.316;21.166;2023-07-29T05:23:13;99838.88;;;22.28;61.81
34124;BME280;13153;52.316;21.166;2023-07-29T05:25:39;99840.31;;;22.40;61.77
34124;BME280;13153;52.316;21.166;2023-07-29T05:28:05;99843.53;;;22.51;60.99
34124;BME280;13153;52.316;21.166;2023-07-29T05:30:32;99839.38;;;22.69;60.78
34124;BME280;13153;52.316;21.166;2023-07-29T05:33:00;99838.13;;;22.81;59.43
34124;BME280;13153;52.316;21.166;2023-07-29T05:35:26;99833.72;;;22.78;58.92
34124;BME280;13153;52.316;21.166;2023-07-29T05:37:51;99842.88;;;22.71;58.62
34124;BME280;13153;52.316;21.166;2023-07-29T05:40:17;99839.97;;;22.51;58.26
34124;BME280;13153;52.316;21.166;2023-07-29T05:42:43;99843.72;;;22.45;58.80
34124;BME280;13153;52.316;21.166;2023-07-29T05:45:11;99848.28;;;22.42;58.72
34124;BME280;13153;52.316;21.166;2023-07-29T05:47:37;99850.88;;;22.45;59.11
34124;BME280;13153;52.316;21.166;2023-07-29T05:50:04;99843.53;;;22.51;59.10
34124;BME280;13153;52.316;21.166;2023-07-29T05:52:31;99852.09;;;22.62;58.65
34124;BME280;13153;52.316;21.166;2023-07-29T05:54:57;99855.38;;;22.72;58.56
34124;BME280;13153;52.316;21.166;2023-07-29T05:57:23;99851.50;;;22.82;58.86
34124;BME280;13153;52.316;21.166;2023-07-29T05:59:48;99864.44;;;22.97;58.77
34124;BME280;13153;52.316;21.166;2023-07-29T06:02:14;99864.72;;;23.15;58.50
34124;BME280;13153;52.316;21.166;2023-07-29T06:04:40;99863.28;;;23.31;58.23
34124;BME280;13153;52.316;21.166;2023-07-29T06:07:06;99859.69;;;23.58;58.21
34124;BME280;13153;52.316;21.166;2023-07-29T06:09:32;99864.59;;;24.20;56.93
34124;BME280;13153;52.316;21.166;2023-07-29T06:11:58;99874.69;;;24.84;55.15
34124;BME280;13153;52.316;21.166;2023-07-29T06:14:24;99864.34;;;25.39;53.64
34124;BME280;13153;52.316;21.166;2023-07-29T06:16:50;99868.34;;;25.71;52.30
34124;BME280;13153;52.316;21.166;2023-07-29T06:19:15;99869.66;;;26.01;51.32
34124;BME280;13153;52.316;21.166;2023-07-29T06:21:42;99876.81;;;26.60;50.30
34124;BME280;13153;52.316;21.166;2023-07-29T06:24:07;99882.00;;;28.07;46.50
34124;BME280;13153;52.316;21.166;2023-07-29T06:26:33;99884.44;;;30.01;43.32
34124;BME280;13153;52.316;21.166;2023-07-29T06:28:59;99888.72;;;31.44;39.76
34124;BME280;13153;52.316;21.166;2023-07-29T06:31:25;99894.72;;;32.90;38.01
34124;BME280;13153;52.316;21.166;2023-07-29T06:33:50;99901.63;;;34.25;36.11
34124;BME280;13153;52.316;21.166;2023-07-29T06:36:16;99895.25;;;34.59;34.11
34124;BME280;13153;52.316;21.166;2023-07-29T06:38:42;99906.50;;;34.77;32.95
34124;BME280;13153;52.316;21.166;2023-07-29T06:41:08;99910.56;;;35.38;31.85
34124;BME280;13153;52.316;21.166;2023-07-29T06:43:34;99909.94;;;36.20;30.90
34124;BME280;13153;52.316;21.166;2023-07-29T06:45:59;99911.34;;;36.65;29.22
34124;BME280;13153;52.316;21.166;2023-07-29T06:48:25;99910.56;;;36.54;29.50
34124;BME280;13153;52.316;21.166;2023-07-29T06:50:51;99924.31;;;36.63;29.59
34124;BME280;13153;52.316;21.166;2023-07-29T06:53:17;99912.69;;;36.71;29.42
34124;BME280;13153;52.316;21.166;2023-07-29T06:55:44;99912.22;;;36.96;28.62
34124;BME280;13153;52.316;21.166;2023-07-29T06:58:10;99918.72;;;37.55;28.61
34124;BME280;13153;52.316;21.166;2023-07-29T07:00:36;99921.91;;;37.89;27.56
34124;BME280;13153;52.316;21.166;2023-07-29T07:03:02;99906.44;;;38.07;26.90
34124;BME280;13153;52.316;21.166;2023-07-29T07:05:27;99908.69;;;38.31;27.20
34124;BME280;13153;52.316;21.166;2023-07-29T07:07:53;99909.94;;;38.56;27.30
34124;BME280;13153;52.316;21.166;2023-07-29T07:10:19;99914.41;;;39.04;26.62
34124;BME280;13153;52.316;21.166;2023-07-29T07:12:45;99905.19;;;39.58;25.44
34124;BME280;13153;52.316;21.166;2023-07-29T07:15:11;99906.16;;;39.84;24.20
34124;BME280;13153;52.316;21.166;2023-07-29T07:17:37;99904.22;;;40.03;23.99
34124;BME280;13153;52.316;21.166;2023-07-29T07:20:03;99905.31;;;40.10;24.45
34124;BME280;13153;52.316;21.166;2023-07-29T07:22:29;99903.59;;;40.09;23.40
34124;BME280;13153;52.316;21.166;2023-07-29T07:24:55;99903.13;;;40.13;24.45
34124;BME280;13153;52.316;21.166;2023-07-29T07:27:20;99898.19;;;40.43;23.46
34124;BME280;13153;52.316;21.166;2023-07-29T07:29:46;99893.72;;;40.50;23.39
34124;BME280;13153;52.316;21.166;2023-07-29T07:32:12;99904.09;;;40.56;23.62
34124;BME280;13153;52.316;21.166;2023-07-29T07:34:37;99903.44;;;40.88;23.56
34124;BME280;13153;52.316;21.166;2023-07-29T07:37:03;99910.22;;;41.02;22.12
34124;BME280;13153;52.316;21.166;2023-07-29T07:39:31;99895.72;;;41.08;22.23
34124;BME280;13153;52.316;21.166;2023-07-29T07:41:57;99899.31;;;40.92;22.21
34124;BME280;13153;52.316;21.166;2023-07-29T07:44:23;99898.81;;;40.97;22.50
34124;BME280;13153;52.316;21.166;2023-07-29T07:46:52;99893.59;;;40.59;22.13
34124;BME280;13153;52.316;21.166;2023-07-29T07:49:18;99894.63;;;40.07;23.07
34124;BME280;13153;52.316;21.166;2023-07-29T07:51:44;99891.50;;;39.48;23.56
34124;BME280;13153;52.316;21.166;2023-07-29T07:54:10;99888.00;;;38.37;25.61
34124;BME280;13153;52.316;21.166;2023-07-29T07:56:35;99890.78;;;38.17;26.11
34124;BME280;13153;52.316;21.166;2023-07-29T07:59:01;99892.56;;;37.01;27.17
34124;BME280;13153;52.316;21.166;2023-07-29T08:01:27;99887.78;;;36.53;28.91
34124;BME280;13153;52.316;21.166;2023-07-29T08:03:52;99886.19;;;36.81;28.67
34124;BME280;13153;52.316;21.166;2023-07-29T08:06:18;99889.22;;;37.38;26.32
34124;BME280;13153;52.316;21.166;2023-07-29T08:08:44;99884.47;;;37.49;26.65
34124;BME280;13153;52.316;21.166;2023-07-29T08:11:10;99885.44;;;37.58;26.35
34124;BME280;13153;52.316;21.166;2023-07-29T08:13:36;99880.38;;;37.24;27.33
34124;BME280;13153;52.316;21.166;2023-07-29T08:16:02;99885.50;;;36.89;27.46
34124;BME280;13153;52.316;21.166;2023-07-29T08:18:27;99875.28;;;36.30;28.11
34124;BME280;13153;52.316;21.166;2023-07-29T08:20:58;99874.25;;;35.36;28.85
34124;BME280;13153;52.316;21.166;2023-07-29T08:23:25;99878.09;;;34.57;30.80
34124;BME280;13153;52.316;21.166;2023-07-29T08:25:57;99871.56;;;33.67;32.59
34124;BME280;13153;52.316;21.166;2023-07-29T08:28:32;99870.94;;;32.92;33.38
34124;BME280;13153;52.316;21.166;2023-07-29T08:30:59;99868.81;;;32.21;34.56
34124;BME280;13153;52.316;21.166;2023-07-29T08:33:26;99860.75;;;31.69;36.23
34124;BME280;13153;52.316;21.166;2023-07-29T08:35:52;99861.84;;;31.92;36.21
34124;BME280;13153;52.316;21.166;2023-07-29T08:38:19;99862.97;;;32.27;34.85
34124;BME280;13153;52.316;21.166;2023-07-29T08:43:32;99868.16;;;32.17;35.80
34124;BME280;13153;52.316;21.166;2023-07-29T08:45:59;99857.66;;;31.61;36.90
34124;BME280;13153;52.316;21.166;2023-07-29T08:48:55;99860.59;;;31.04;36.97
34124;BME280;13153;52.316;21.166;2023-07-29T08:51:23;99861.03;;;30.83;37.65
34124;BME280;13153;52.316;21.166;2023-07-29T08:53:51;99855.50;;;30.85;36.73
34124;BME280;13153;52.316;21.166;2023-07-29T08:56:17;99856.88;;;30.64;37.73
34124;BME280;13153;52.316;21.166;2023-07-29T08:58:43;99859.91;;;30.45;37.89
34124;BME280;13153;52.316;21.166;2023-07-29T09:01:09;99853.72;;;30.29;37.87
34124;BME280;13153;52.316;21.166;2023-07-29T09:03:36;99858.16;;;30.15;38.21
34124;BME280;13153;52.316;21.166;2023-07-29T09:06:02;99858.19;;;30.01;38.13
34124;BME280;13153;52.316;21.166;2023-07-29T09:08:29;99850.38;;;29.95;37.38
34124;BME280;13153;52.316;21.166;2023-07-29T09:10:55;99848.16;;;30.16;38.51
34124;BME280;13153;52.316;21.166;2023-07-29T09:13:22;99843.03;;;30.40;38.34
34124;BME280;13153;52.316;21.166;2023-07-29T09:15:48;99846.09;;;30.76;38.79
34124;BME280;13153;52.316;21.166;2023-07-29T09:18:19;99848.25;;;31.12;37.70
34124;BME280;13153;52.316;21.166;2023-07-29T09:20:50;99850.53;;;31.45;36.48
34124;BME280;13153;52.316;21.166;2023-07-29T09:23:16;99842.69;;;31.68;36.04
34124;BME280;13153;52.316;21.166;2023-07-29T09:25:42;99850.03;;;31.66;36.26
34124;BME280;13153;52.316;21.166;2023-07-29T09:28:14;99855.84;;;31.74;35.82
34124;BME280;13153;52.316;21.166;2023-07-29T09:30:42;99853.69;;;31.92;35.55
34124;BME280;13153;52.316;21.166;2023-07-29T09:33:09;99854.88;;;31.88;35.51
34124;BME280;13153;52.316;21.166;2023-07-29T09:35:36;99850.03;;;31.66;34.91
34124;BME280;13153;52.316;21.166;2023-07-29T09:38:27;99854.41;;;31.29;34.98
34124;BME280;13153;52.316;21.166;2023-07-29T09:40:56;99851.16;;;31.09;34.98
34124;BME280;13153;52.316;21.166;2023-07-29T09:43:30;99847.88;;;31.18;35.89
34124;BME280;13153;52.316;21.166;2023-07-29T09:46:04;99842.75;;;31.27;36.71
34124;BME280;13153;52.316;21.166;2023-07-29T09:48:38;99845.56;;;31.25;35.80
34124;BME280;13153;52.316;21.166;2023-07-29T09:51:14;99832.28;;;31.20;34.97
34124;BME280;13153;52.316;21.166;2023-07-29T09:53:44;99835.72;;;31.10;34.94
34124;BME280;13153;52.316;21.166;2023-07-29T09:56:12;99835.25;;;31.17;34.92
34124;BME280;13153;52.316;21.166;2023-07-29T09:58:39;99834.59;;;31.27;35.29
34124;BME280;13153;52.316;21.166;2023-07-29T10:01:08;99830.44;;;31.21;36.09
34124;BME280;13153;52.316;21.166;2023-07-29T10:03:35;99833.94;;;31.23;34.45
34124;BME280;13153;52.316;21.166;2023-07-29T10:06:03;99832.13;;;31.09;35.94
34124;BME280;13153;52.316;21.166;2023-07-29T10:08:30;99828.97;;;31.03;34.89
34124;BME280;13153;52.316;21.166;2023-07-29T10:11:14;99825.81;;;31.09;36.05
34124;BME280;13153;52.316;21.166;2023-07-29T10:13:41;99837.28;;;31.14;36.60
34124;BME280;13153;52.316;21.166;2023-07-29T10:16:06;99830.78;;;31.16;36.77
34124;BME280;13153;52.316;21.166;2023-07-29T10:18:33;99827.66;;;31.08;36.01
34124;BME280;13153;52.316;21.166;2023-07-29T10:21:01;99829.19;;;30.85;35.17
34124;BME280;13153;52.316;21.166;2023-07-29T10:23:32;99824.00;;;30.68;36.51
34124;BME280;13153;52.316;21.166;2023-07-29T10:26:09;99833.00;;;30.83;36.19
34124;BME280;13153;52.316;21.166;2023-07-29T10:28:41;99835.97;;;30.93;35.65
34124;BME280;13153;52.316;21.166;2023-07-29T10:31:11;99828.44;;;30.83;35.84
34124;BME280;13153;52.316;21.166;2023-07-29T10:33:38;99823.75;;;30.85;36.85
34124;BME280;13153;52.316;21.166;2023-07-29T10:36:05;99826.47;;;30.85;35.79
34124;BME280;13153;52.316;21.166;2023-07-29T10:38:31;99819.19;;;30.86;36.60
34124;BME280;13153;52.316;21.166;2023-07-29T10:40:58;99815.22;;;30.92;36.81
34124;BME280;13153;52.316;21.166;2023-07-29T10:43:33;99820.53;;;30.93;37.92
34124;BME280;13153;52.316;21.166;2023-07-29T10:46:23;99817.56;;;30.83;37.08
34124;BME280;13153;52.316;21.166;2023-07-29T10:51:35;99806.44;;;30.74;38.29
34124;BME280;13153;52.316;21.166;2023-07-29T10:54:13;99808.97;;;30.63;36.53
34124;BME280;13153;52.316;21.166;2023-07-29T10:56:49;99816.38;;;30.46;37.20
34124;BME280;13153;52.316;21.166;2023-07-29T11:01:56;99808.72;;;30.25;37.86
34124;BME280;13153;52.316;21.166;2023-07-29T11:04:25;99803.50;;;30.21;38.34
34124;BME280;13153;52.316;21.166;2023-07-29T11:17:53;99802.72;;;30.19;35.93
34124;BME280;13153;52.316;21.166;2023-07-29T11:20:37;99797.56;;;30.15;35.49
34124;BME280;13153;52.316;21.166;2023-07-29T11:23:03;99791.28;;;30.14;36.47
34124;BME280;13153;52.316;21.166;2023-07-29T11:25:31;99785.84;;;30.14;35.58
34124;BME280;13153;52.316;21.166;2023-07-29T11:28:00;99787.59;;;30.15;35.29
34124;BME280;13153;52.316;21.166;2023-07-29T11:30:26;99780.13;;;30.19;37.30
34124;BME280;13153;52.316;21.166;2023-07-29T11:32:54;99780.72;;;30.24;38.26
34124;BME280;13153;52.316;21.166;2023-07-29T11:35:21;99777.69;;;30.29;38.81
34124;BME280;13153;52.316;21.166;2023-07-29T11:37:50;99781.38;;;30.28;37.60
34124;BME280;13153;52.316;21.166;2023-07-29T11:40:21;99778.66;;;30.28;36.41
34124;BME280;13153;52.316;21.166;2023-07-29T11:42:49;99770.53;;;30.28;36.77
34124;BME280;13153;52.316;21.166;2023-07-29T11:45:16;99762.88;;;30.20;35.45
34124;BME280;13153;52.316;21.166;2023-07-29T11:47:42;99760.66;;;30.12;36.42
34124;BME280;13153;52.316;21.166;2023-07-29T11:50:10;99764.34;;;30.11;36.25
34124;BME280;13153;52.316;21.166;2023-07-29T11:52:39;99762.25;;;30.02;35.59
34124;BME280;13153;52.316;21.166;2023-07-29T11:55:06;99751.63;;;29.98;34.58
34124;BME280;13153;52.316;21.166;2023-07-29T11:57:38;99745.34;;;29.97;35.34
34124;BME280;13153;52.316;21.166;2023-07-29T12:00:09;99735.66;;;29.93;34.99
34124;BME280;13153;52.316;21.166;2023-07-29T12:02:39;99731.00;;;29.95;36.27
34124;BME280;13153;52.316;21.166;2023-07-29T12:05:06;99727.31;;;29.96;37.22
34124;BME280;13153;52.316;21.166;2023-07-29T12:07:33;99738.28;;;29.95;37.36
34124;BME280;13153;52.316;21.166;2023-07-29T12:09:59;99723.63;;;29.97;37.41
34124;BME280;13153;52.316;21.166;2023-07-29T12:12:25;99726.00;;;30.03;37.45
34124;BME280;13153;52.316;21.166;2023-07-29T12:14:54;99727.94;;;30.01;37.18
34124;BME280;13153;52.316;21.166;2023-07-29T12:17:19;99728.91;;;30.00;37.08
34124;BME280;13153;52.316;21.166;2023-07-29T12:19:45;99727.13;;;29.99;37.16
34124;BME280;13153;52.316;21.166;2023-07-29T12:22:11;99722.19;;;29.92;36.20
34124;BME280;13153;52.316;21.166;2023-07-29T12:24:39;99719.84;;;29.85;35.20
34124;BME280;13153;52.316;21.166;2023-07-29T12:27:12;99722.38;;;29.74;35.44
34124;BME280;13153;52.316;21.166;2023-07-29T12:29:44;99712.41;;;29.75;36.38
34124;BME280;13153;52.316;21.166;2023-07-29T12:32:12;99714.63;;;29.82;36.21
34124;BME280;13153;52.316;21.166;2023-07-29T12:34:38;99710.84;;;29.85;36.20
34124;BME280;13153;52.316;21.166;2023-07-29T12:37:06;99710.94;;;29.83;37.30
34124;BME280;13153;52.316;21.166;2023-07-29T12:39:39;99712.69;;;29.84;37.65
34124;BME280;13153;52.316;21.166;2023-07-29T12:42:06;99718.69;;;29.89;38.33
34124;BME280;13153;52.316;21.166;2023-07-29T12:44:35;99714.72;;;29.95;38.71
34124;BME280;13153;52.316;21.166;2023-07-29T12:47:03;99712.00;;;29.95;38.46
34124;BME280;13153;52.316;21.166;2023-07-29T12:49:30;99710.16;;;29.96;38.46
34124;BME280;13153;52.316;21.166;2023-07-29T12:52:00;99709.19;;;29.97;37.57
34124;BME280;13153;52.316;21.166;2023-07-29T12:54:26;99705.22;;;29.88;36.65
34124;BME280;13153;52.316;21.166;2023-07-29T12:56:52;99701.25;;;29.79;37.25
34124;BME280;13153;52.316;21.166;2023-07-29T12:59:18;99702.13;;;29.80;37.21
34124;BME280;13153;52.316;21.166;2023-07-29T13:01:43;99694.69;;;29.83;37.65
34124;BME280;13153;52.316;21.166;2023-07-29T13:04:10;99698.25;;;29.84;37.14
34124;BME280;13153;52.316;21.166;2023-07-29T13:06:37;99698.34;;;29.82;38.06
34124;BME280;13153;52.316;21.166;2023-07-29T13:09:03;99698.06;;;29.87;38.05
34124;BME280;13153;52.316;21.166;2023-07-29T13:11:30;99692.34;;;29.92;36.79
34124;BME280;13153;52.316;21.166;2023-07-29T13:13:58;99690.09;;;29.98;37.11